sensor_id;sensor_type;location;lat;lon;timestamp;temperature;humidity
48752;DHT22;34544;48.836;9.174;2023-04-01T00:01:06;9.10;99.90
48752;DHT22;34544;48.836;9.174;2023-04-01T00:03:33;9.20;99.90
48752;DHT22;34544;48.836;9.174;2023-04-01T00:05:59;9.20;99.90
48752;DHT22;34544;48.836;9.174;2023-04-01T00:08:27;9.20;99.90
48752;DHT22;34544;48.836;9.174;2023-04-01T00:10:53;9.20;99.90
48752;DHT22;34544;48.836;9.174;2023-04-01T00:13:19;9.20;99.90
48752;DHT22;34544;48.836;9.174;2023-04-01T00:15:45;9.20;99.90
48752;DHT22;34544;48.836;9.174;2023-04-01T00:18:11;9.30;99.90
48752;DHT22;34544;48.836;9.174;2023-04-01T00:20:38;9.30;99.90
48752;DHT22;34544;48.836;9.174;2023-04-01T00:23:04;9.40;99.90
48752;DHT22;34544;48.836;9.174;2023-04-01T00:25:31;9.40;99.90
48752;DHT22;34544;48.836;9.174;2023-04-01T00:27:56;9.40;99.90
48752;DHT22;34544;48.836;9.174;2023-04-01T00:30:22;9.40;99.90
48752;DHT22;34544;48.836;9.174;2023-04-01T00:32:52;9.40;99.90
48752;DHT22;34544;48.836;9.174;2023-04-01T00:35:18;9.40;99.90
48752;DHT22;34544;48.836;9.174;2023-04-01T00:37:44;9.40;99.90
48752;DHT22;34544;48.836;9.174;2023-04-01T00:40:24;9.30;99.90
48752;DHT22;34544;48.836;9.174;2023-04-01T00:42:51;9.30;99.90
48752;DHT22;34544;48.836;9.174;2023-04-01T00:47:52;9.30;99.90
48752;DHT22;34544;48.836;9.174;2023-04-01T00:50:19;9.40;99.90
48752;DHT22;34544;48.836;9.174;2023-04-01T00:52:45;9.40;99.90
48752;DHT22;34544;48.836;9.174;2023-04-01T00:55:13;9.40;99.90
48752;DHT22;34544;48.836;9.174;2023-04-01T00:57:40;9.50;99.90
48752;DHT22;34544;48.836;9.174;2023-04-01T01:00:10;9.50;99.90
48752;DHT22;34544;48.836;9.174;2023-04-01T01:02:37;9.50;99.90
48752;DHT22;34544;48.836;9.174;2023-04-01T01:05:03;9.50;99.90
48752;DHT22;34544;48.836;9.174;2023-04-01T01:07:54;9.50;99.90
48752;DHT22;34544;48.836;9.174;2023-04-01T01:10:33;9.50;99.90
48752;DHT22;34544;48.836;9.174;2023-04-01T01:15:45;9.60;99.90
48752;DHT22;34544;48.836;9.174;2023-04-01T01:24:11;9.60;99.90
48752;DHT22;34544;48.836;9.174;2023-04-01T01:26:44;9.50;99.90
48752;DHT22;34544;48.836;9.174;2023-04-01T01:29:46;9.50;99.90
48752;DHT22;34544;48.836;9.174;2023-04-01T01:35:35;9.50;99.90
48752;DHT22;34544;48.836;9.174;2023-04-01T01:38:11;9.50;99.90
48752;DHT22;34544;48.836;9.174;2023-04-01T01:40:44;9.50;99.90
48752;DHT22;34544;48.836;9.174;2023-04-01T01:43:14;9.40;99.90
48752;DHT22;34544;48.836;9.174;2023-04-01T01:46:05;9.40;99.90
48752;DHT22;34544;48.836;9.174;2023-04-01T01:48:29;9.50;99.90
48752;DHT22;34544;48.836;9.174;2023-04-01T01:50:56;9.50;99.90
48752;DHT22;34544;48.836;9.174;2023-04-01T01:53:21;9.40;99.90
48752;DHT22;34544;48.836;9.174;2023-04-01T01:55:47;9.40;99.90
48752;DHT22;34544;48.836;9.174;2023-04-01T02:01:05;9.30;99.90
48752;DHT22;34544;48.836;9.174;2023-04-01T02:03:34;9.30;99.90
48752;DHT22;34544;48.836;9.174;2023-04-01T02:06:04;9.30;99.90
48752;DHT22;34544;48.836;9.174;2023-04-01T02:08:36;9.20;99.90
48752;DHT22;34544;48.836;9.174;2023-04-01T02:11:08;9.20;99.90
48752;DHT22;34544;48.836;9.174;2023-04-01T02:13:58;9.20;99.90
48752;DHT22;34544;48.836;9.174;2023-04-01T02:16:31;9.20;99.90
48752;DHT22;34544;48.836;9.174;2023-04-01T02:19:01;9.20;99.90
48752;DHT22;34544;48.836;9.174;2023-04-01T02:21:31;9.20;99.90
48752;DHT22;34544;48.836;9.174;2023-04-01T02:24:00;9.20;99.90
48752;DHT22;34544;48.836;9.174;2023-04-01T02:26:27;9.20;99.90
48752;DHT22;34544;48.836;9.174;2023-04-01T02:28:54;9.10;99.90
48752;DHT22;34544;48.836;9.174;2023-04-01T02:31:21;9.10;99.90
48752;DHT22;34544;48.836;9.174;2023-04-01T02:33:47;9.10;99.90
48752;DHT22;34544;48.836;9.174;2023-04-01T02:36:14;9.10;99.90
48752;DHT22;34544;48.836;9.174;2023-04-01T02:38:42;9.10;99.90
48752;DHT22;34544;48.836;9.174;2023-04-01T02:41:09;9.10;99.90
48752;DHT22;34544;48.836;9.174;2023-04-01T02:43:34;9.00;99.90
48752;DHT22;34544;48.836;9.174;2023-04-01T02:46:00;9.00;99.90
48752;DHT22;34544;48.836;9.174;2023-04-01T02:48:27;9.00;99.90
48752;DHT22;34544;48.836;9.174;2023-04-01T02:50:53;9.00;99.90
48752;DHT22;34544;48.836;9.174;2023-04-01T02:53:18;9.00;99.90
48752;DHT22;34544;48.836;9.174;2023-04-01T02:55:44;9.00;99.90
48752;DHT22;34544;48.836;9.174;2023-04-01T02:58:11;9.00;99.90
48752;DHT22;34544;48.836;9.174;2023-04-01T03:00:37;9.00;99.90
48752;DHT22;34544;48.836;9.174;2023-04-01T03:03:03;8.90;99.90
48752;DHT22;34544;48.836;9.174;2023-04-01T03:05:28;8.90;99.90
48752;DHT22;34544;48.836;9.174;2023-04-01T03:07:55;8.90;99.90
48752;DHT22;34544;48.836;9.174;2023-04-01T03:10:22;8.90;99.90
48752;DHT22;34544;48.836;9.174;2023-04-01T03:12:47;8.90;99.90
48752;DHT22;34544;48.836;9.174;2023-04-01T03:15:14;8.90;99.90
48752;DHT22;34544;48.836;9.174;2023-04-01T03:17:41;9.00;99.90
48752;DHT22;34544;48.836;9.174;2023-04-01T03:20:08;9.00;99.90
48752;DHT22;34544;48.836;9.174;2023-04-01T03:22:34;9.00;99.90
48752;DHT22;34544;48.836;9.174;2023-04-01T03:25:01;9.00;99.90
48752;DHT22;34544;48.836;9.174;2023-04-01T03:27:27;9.00;99.90
48752;DHT22;34544;48.836;9.174;2023-04-01T03:29:53;9.00;99.90
48752;DHT22;34544;48.836;9.174;2023-04-01T03:32:18;8.90;99.90
48752;DHT22;34544;48.836;9.174;2023-04-01T03:34:44;8.90;99.90
48752;DHT22;34544;48.836;9.174;2023-04-01T03:37:10;8.90;99.90
48752;DHT22;34544;48.836;9.174;2023-04-01T03:39:36;8.90;99.90
48752;DHT22;34544;48.836;9.174;2023-04-01T03:42:01;8.90;99.90
48752;DHT22;34544;48.836;9.174;2023-04-01T03:44:31;8.90;99.90
48752;DHT22;34544;48.836;9.174;2023-04-01T03:46:57;8.90;99.90
48752;DHT22;34544;48.836;9.174;2023-04-01T03:49:23;8.90;99.90
48752;DHT22;34544;48.836;9.174;2023-04-01T03:51:49;8.90;99.90
48752;DHT22;34544;48.836;9.174;2023-04-01T03:54:14;8.90;99.90
48752;DHT22;34544;48.836;9.174;2023-04-01T03:56:42;8.90;99.90
48752;DHT22;34544;48.836;9.174;2023-04-01T03:59:08;8.90;99.90
48752;DHT22;34544;48.836;9.174;2023-04-01T04:01:35;8.80;99.90
48752;DHT22;34544;48.836;9.174;2023-04-01T04:04:00;8.80;99.90
48752;DHT22;34544;48.836;9.174;2023-04-01T04:06:27;8.70;99.90
48752;DHT22;34544;48.836;9.174;2023-04-01T04:08:53;8.70;99.90
48752;DHT22;34544;48.836;9.174;2023-04-01T04:11:21;8.70;99.90
48752;DHT22;34544;48.836;9.174;2023-04-01T04:13:49;8.70;99.90
48752;DHT22;34544;48.836;9.174;2023-04-01T04:16:16;8.80;99.90
48752;DHT22;34544;48.836;9.174;2023-04-01T04:18:47;8.80;99.90
48752;DHT22;34544;48.836;9.174;2023-04-01T04:21:14;8.80;99.90
48752;DHT22;34544;48.836;9.174;2023-04-01T04:23:41;8.90;99.90
48752;DHT22;34544;48.836;9.174;2023-04-01T04:26:10;8.90;99.90
48752;DHT22;34544;48.836;9.174;2023-04-01T04:28:36;8.90;99.90
48752;DHT22;34544;48.836;9.174;2023-04-01T04:31:03;8.90;99.90
48752;DHT22;34544;48.836;9.174;2023-04-01T04:33:33;8.90;99.90
48752;DHT22;34544;48.836;9.174;2023-04-01T04:36:00;8.90;99.90
48752;DHT22;34544;48.836;9.174;2023-04-01T04:38:27;8.80;99.90
48752;DHT22;34544;48.836;9.174;2023-04-01T04:40:53;8.80;99.90
48752;DHT22;34544;48.836;9.174;2023-04-01T04:43:19;8.80;99.90
48752;DHT22;34544;48.836;9.174;2023-04-01T04:45:46;8.80;99.90
48752;DHT22;34544;48.836;9.174;2023-04-01T04:48:13;8.80;99.90
48752;DHT22;34544;48.836;9.174;2023-04-01T04:50:42;8.80;99.90
48752;DHT22;34544;48.836;9.174;2023-04-01T04:53:12;8.70;99.90
48752;DHT22;34544;48.836;9.174;2023-04-01T04:55:42;8.70;99.90
48752;DHT22;34544;48.836;9.174;2023-04-01T04:58:23;8.70;99.90
48752;DHT22;34544;48.836;9.174;2023-04-01T05:00:49;8.60;99.90
48752;DHT22;34544;48.836;9.174;2023-04-01T05:03:24;8.60;99.90
48752;DHT22;34544;48.836;9.174;2023-04-01T05:05:53;8.60;99.90
48752;DHT22;34544;48.836;9.174;2023-04-01T05:08:19;8.60;99.90
48752;DHT22;34544;48.836;9.174;2023-04-01T05:10:46;8.60;99.90
48752;DHT22;34544;48.836;9.174;2023-04-01T05:13:12;8.60;99.90
48752;DHT22;34544;48.836;9.174;2023-04-01T05:15:40;8.60;99.90
48752;DHT22;34544;48.836;9.174;2023-04-01T05:18:06;8.60;99.90
48752;DHT22;34544;48.836;9.174;2023-04-01T05:20:32;8.60;99.90
48752;DHT22;34544;48.836;9.174;2023-04-01T05:22:59;8.60;99.90
48752;DHT22;34544;48.836;9.174;2023-04-01T05:25:25;8.60;99.90
48752;DHT22;34544;48.836;9.174;2023-04-01T05:27:51;8.50;99.90
48752;DHT22;34544;48.836;9.174;2023-04-01T05:30:18;8.50;99.90
48752;DHT22;34544;48.836;9.174;2023-04-01T05:32:58;8.50;99.90
48752;DHT22;34544;48.836;9.174;2023-04-01T05:35:24;8.50;99.90
48752;DHT22;34544;48.836;9.174;2023-04-01T05:37:50;8.50;99.90
48752;DHT22;34544;48.836;9.174;2023-04-01T05:40:17;8.60;99.90
48752;DHT22;34544;48.836;9.174;2023-04-01T05:42:43;8.60;99.90
48752;DHT22;34544;48.836;9.174;2023-04-01T05:45:10;8.70;99.90
48752;DHT22;34544;48.836;9.174;2023-04-01T05:47:56;8.70;99.90
48752;DHT22;34544;48.836;9.174;2023-04-01T05:50:21;8.80;99.90
48752;DHT22;34544;48.836;9.174;2023-04-01T05:52:48;8.80;99.90
48752;DHT22;34544;48.836;9.174;2023-04-01T05:55:14;8.90;99.90
48752;DHT22;34544;48.836;9.174;2023-04-01T05:57:40;8.90;99.90
48752;DHT22;34544;48.836;9.174;2023-04-01T06:00:06;9.00;99.90
48752;DHT22;34544;48.836;9.174;2023-04-01T06:02:38;9.10;99.90
48752;DHT22;34544;48.836;9.174;2023-04-01T06:05:21;9.10;99.90
48752;DHT22;34544;48.836;9.174;2023-04-01T06:07:47;9.30;99.90
48752;DHT22;34544;48.836;9.174;2023-04-01T06:10:20;9.40;99.90
48752;DHT22;34544;48.836;9.174;2023-04-01T06:15:41;9.60;99.90
48752;DHT22;34544;48.836;9.174;2023-04-01T06:18:29;9.70;99.90
48752;DHT22;34544;48.836;9.174;2023-04-01T06:26:39;9.80;99.90
48752;DHT22;34544;48.836;9.174;2023-04-01T06:37:38;10.00;99.90
48752;DHT22;34544;48.836;9.174;2023-04-01T06:40:31;10.10;99.90
48752;DHT22;34544;48.836;9.174;2023-04-01T06:43:48;10.10;99.90
48752;DHT22;34544;48.836;9.174;2023-04-01T06:47:00;10.20;99.90
48752;DHT22;34544;48.836;9.174;2023-04-01T06:49:58;10.20;99.90
48752;DHT22;34544;48.836;9.174;2023-04-01T06:53:21;10.20;99.90
48752;DHT22;34544;48.836;9.174;2023-04-01T06:56:13;10.20;99.90
48752;DHT22;34544;48.836;9.174;2023-04-01T06:59:03;10.20;99.90
48752;DHT22;34544;48.836;9.174;2023-04-01T07:01:52;10.20;99.90
48752;DHT22;34544;48.836;9.174;2023-04-01T07:04:20;10.30;99.90
48752;DHT22;34544;48.836;9.174;2023-04-01T07:06:53;10.30;99.90
48752;DHT22;34544;48.836;9.174;2023-04-01T07:09:25;10.30;99.90
48752;DHT22;34544;48.836;9.174;2023-04-01T07:15:28;10.50;99.90
48752;DHT22;34544;48.836;9.174;2023-04-01T07:18:01;10.40;99.90
48752;DHT22;34544;48.836;9.174;2023-04-01T07:20:35;10.40;99.90
48752;DHT22;34544;48.836;9.174;2023-04-01T07:23:06;10.40;99.90
48752;DHT22;34544;48.836;9.174;2023-04-01T07:25:48;10.40;99.90
48752;DHT22;34544;48.836;9.174;2023-04-01T07:28:36;10.40;99.90
48752;DHT22;34544;48.836;9.174;2023-04-01T07:31:50;10.40;99.90
48752;DHT22;34544;48.836;9.174;2023-04-01T07:34:38;10.40;99.90
48752;DHT22;34544;48.836;9.174;2023-04-01T07:37:12;10.40;99.90
48752;DHT22;34544;48.836;9.174;2023-04-01T07:39:53;10.30;99.90
48752;DHT22;34544;48.836;9.174;2023-04-01T07:50:34;10.40;99.90
48752;DHT22;34544;48.836;9.174;2023-04-01T08:01:04;10.50;99.90
48752;DHT22;34544;48.836;9.174;2023-04-01T08:04:14;10.60;99.90
48752;DHT22;34544;48.836;9.174;2023-04-01T08:16:09;10.80;99.90
48752;DHT22;34544;48.836;9.174;2023-04-01T08:21:51;10.80;99.90
48752;DHT22;34544;48.836;9.174;2023-04-01T08:24:35;10.90;99.90
48752;DHT22;34544;48.836;9.174;2023-04-01T08:27:35;11.00;99.90
48752;DHT22;34544;48.836;9.174;2023-04-01T08:30:49;11.00;99.90
48752;DHT22;34544;48.836;9.174;2023-04-01T08:32:59;11.10;99.90
48752;DHT22;34544;48.836;9.174;2023-04-01T08:35:31;11.10;99.90
48752;DHT22;34544;48.836;9.174;2023-04-01T08:38:05;10.90;99.90
48752;DHT22;34544;48.836;9.174;2023-04-01T08:46:19;10.80;99.90
48752;DHT22;34544;48.836;9.174;2023-04-01T08:54:21;10.10;99.90
48752;DHT22;34544;48.836;9.174;2023-04-01T08:57:31;10.00;99.90
48752;DHT22;34544;48.836;9.174;2023-04-01T09:00:41;9.90;99.90
48752;DHT22;34544;48.836;9.174;2023-04-01T09:03:58;9.90;99.90
48752;DHT22;34544;48.836;9.174;2023-04-01T09:06:31;9.80;99.90
48752;DHT22;34544;48.836;9.174;2023-04-01T09:11:51;9.90;99.90
48752;DHT22;34544;48.836;9.174;2023-04-01T09:14:45;9.90;99.90
48752;DHT22;34544;48.836;9.174;2023-04-01T09:20:19;10.00;99.90
48752;DHT22;34544;48.836;9.174;2023-04-01T09:25:38;10.20;99.90
48752;DHT22;34544;48.836;9.174;2023-04-01T09:34:25;10.70;99.90
48752;DHT22;34544;48.836;9.174;2023-04-01T09:37:29;10.70;99.90
48752;DHT22;34544;48.836;9.174;2023-04-01T09:40:17;10.90;99.90
48752;DHT22;34544;48.836;9.174;2023-04-01T09:45:47;10.90;99.90
48752;DHT22;34544;48.836;9.174;2023-04-01T09:57:04;10.80;99.90
48752;DHT22;34544;48.836;9.174;2023-04-01T10:17:17;10.90;99.90
48752;DHT22;34544;48.836;9.174;2023-04-01T10:20:43;11.00;99.90
48752;DHT22;34544;48.836;9.174;2023-04-01T10:32:12;11.50;99.90
48752;DHT22;34544;48.836;9.174;2023-04-01T10:34:59;11.50;99.90
48752;DHT22;34544;48.836;9.174;2023-04-01T10:49:38;11.30;99.90
48752;DHT22;34544;48.836;9.174;2023-04-01T10:52:20;11.30;99.90
48752;DHT22;34544;48.836;9.174;2023-04-01T11:19:36;11.80;99.90
48752;DHT22;34544;48.836;9.174;2023-04-01T11:30:56;11.80;99.90
48752;DHT22;34544;48.836;9.174;2023-04-01T11:33:38;12.00;99.90
48752;DHT22;34544;48.836;9.174;2023-04-01T11:38:56;12.30;99.90
48752;DHT22;34544;48.836;9.174;2023-04-01T11:45:29;12.40;99.90
48752;DHT22;34544;48.836;9.174;2023-04-01T11:56:53;12.50;99.90
48752;DHT22;34544;48.836;9.174;2023-04-01T12:10:26;12.50;99.90
48752;DHT22;34544;48.836;9.174;2023-04-01T12:13:32;12.20;99.90
48752;DHT22;34544;48.836;9.174;2023-04-01T12:19:01;12.10;99.90
48752;DHT22;34544;48.836;9.174;2023-04-01T12:21:52;12.00;99.90
48752;DHT22;34544;48.836;9.174;2023-04-01T12:27:39;11.90;99.90
48752;DHT22;34544;48.836;9.174;2023-04-01T12:44:47;12.10;99.90
48752;DHT22;34544;48.836;9.174;2023-04-01T12:50:40;12.10;99.90
48752;DHT22;34544;48.836;9.174;2023-04-01T12:56:39;12.20;99.90
48752;DHT22;34544;48.836;9.174;2023-04-01T13:05:09;12.20;99.90
48752;DHT22;34544;48.836;9.174;2023-04-01T13:07:53;12.10;99.90
48752;DHT22;34544;48.836;9.174;2023-04-01T13:16:08;12.20;99.90
48752;DHT22;34544;48.836;9.174;2023-04-01T13:19:14;12.20;99.90
48752;DHT22;34544;48.836;9.174;2023-04-01T13:24:50;12.00;99.90
48752;DHT22;34544;48.836;9.174;2023-04-01T13:27:45;11.90;99.90
48752;DHT22;34544;48.836;9.174;2023-04-01T13:30:26;12.00;99.90
48752;DHT22;34544;48.836;9.174;2023-04-01T13:33:09;12.10;99.90
48752;DHT22;34544;48.836;9.174;2023-04-01T13:36:01;12.10;99.90
48752;DHT22;34544;48.836;9.174;2023-04-01T13:39:04;12.30;99.90
48752;DHT22;34544;48.836;9.174;2023-04-01T13:56:00;12.30;99.90
48752;DHT22;34544;48.836;9.174;2023-04-01T13:58:57;12.30;99.90
48752;DHT22;34544;48.836;9.174;2023-04-01T14:18:56;12.30;99.90
48752;DHT22;34544;48.836;9.174;2023-04-01T14:21:40;12.10;99.90
48752;DHT22;34544;48.836;9.174;2023-04-01T14:24:22;12.10;99.90
48752;DHT22;34544;48.836;9.174;2023-04-01T14:32:15;12.10;99.90
48752;DHT22;34544;48.836;9.174;2023-04-01T14:43:04;11.70;99.90
48752;DHT22;34544;48.836;9.174;2023-04-01T14:48:39;11.70;99.90
48752;DHT22;34544;48.836;9.174;2023-04-01T14:54:04;11.60;99.90
48752;DHT22;34544;48.836;9.174;2023-04-01T14:56:42;11.60;99.90
48752;DHT22;34544;48.836;9.174;2023-04-01T15:01:53;11.60;99.90
48752;DHT22;34544;48.836;9.174;2023-04-01T15:04:53;11.60;99.90
48752;DHT22;34544;48.836;9.174;2023-04-01T15:13:15;11.80;99.90
48752;DHT22;34544;48.836;9.174;2023-04-01T15:24:21;11.90;99.90
48752;DHT22;34544;48.836;9.174;2023-04-01T15:27:12;12.00;99.90
48752;DHT22;34544;48.836;9.174;2023-04-01T15:29:50;12.00;99.90
48752;DHT22;34544;48.836;9.174;2023-04-01T15:38:19;12.10;99.90
48752;DHT22;34544;48.836;9.174;2023-04-01T15:43:42;12.00;99.90
48752;DHT22;34544;48.836;9.174;2023-04-01T16:02:48;11.80;99.90
48752;DHT22;34544;48.836;9.174;2023-04-01T16:13:55;11.60;99.90
48752;DHT22;34544;48.836;9.174;2023-04-01T16:19:22;11.50;99.90
48752;DHT22;34544;48.836;9.174;2023-04-01T16:21:53;11.50;99.90
48752;DHT22;34544;48.836;9.174;2023-04-01T16:24:40;11.50;99.90
48752;DHT22;34544;48.836;9.174;2023-04-01T16:27:43;11.40;99.90
48752;DHT22;34544;48.836;9.174;2023-04-01T16:30:33;11.50;99.90
48752;DHT22;34544;48.836;9.174;2023-04-01T16:33:24;11.40;99.90
48752;DHT22;34544;48.836;9.174;2023-04-01T16:35:58;11.40;99.90
48752;DHT22;34544;48.836;9.174;2023-04-01T16:41:38;11.40;99.90
48752;DHT22;34544;48.836;9.174;2023-04-01T16:44:18;11.40;99.90
48752;DHT22;34544;48.836;9.174;2023-04-01T16:46:49;11.40;99.90
48752;DHT22;34544;48.836;9.174;2023-04-01T16:54:44;11.30;99.90
48752;DHT22;34544;48.836;9.174;2023-04-01T16:57:17;11.30;99.90
48752;DHT22;34544;48.836;9.174;2023-04-01T16:59:54;11.30;99.90
48752;DHT22;34544;48.836;9.174;2023-04-01T17:02:26;11.30;99.90
48752;DHT22;34544;48.836;9.174;2023-04-01T17:05:36;11.20;99.90
48752;DHT22;34544;48.836;9.174;2023-04-01T17:08:49;11.20;99.90
48752;DHT22;34544;48.836;9.174;2023-04-01T17:11:24;11.20;99.90
48752;DHT22;34544;48.836;9.174;2023-04-01T17:22:22;11.20;99.90
48752;DHT22;34544;48.836;9.174;2023-04-01T17:25:09;11.20;99.90
48752;DHT22;34544;48.836;9.174;2023-04-01T17:28:01;11.20;99.90
48752;DHT22;34544;48.836;9.174;2023-04-01T17:30:31;11.20;99.90
48752;DHT22;34544;48.836;9.174;2023-04-01T17:36:02;11.20;99.90
48752;DHT22;34544;48.836;9.174;2023-04-01T17:41:27;11.20;99.90
48752;DHT22;34544;48.836;9.174;2023-04-01T17:44:16;11.20;99.90
48752;DHT22;34544;48.836;9.174;2023-04-01T17:53:50;11.20;99.90
48752;DHT22;34544;48.836;9.174;2023-04-01T17:55:55;11.20;99.90
48752;DHT22;34544;48.836;9.174;2023-04-01T17:58:43;11.20;99.90
48752;DHT22;34544;48.836;9.174;2023-04-01T18:01:30;11.20;99.90
48752;DHT22;34544;48.836;9.174;2023-04-01T18:07:26;11.00;99.90
48752;DHT22;34544;48.836;9.174;2023-04-01T18:12:36;10.80;99.90
48752;DHT22;34544;48.836;9.174;2023-04-01T18:15:26;10.80;99.90
48752;DHT22;34544;48.836;9.174;2023-04-01T18:18:05;10.70;99.90
48752;DHT22;34544;48.836;9.174;2023-04-01T18:20:58;10.60;99.90
48752;DHT22;34544;48.836;9.174;2023-04-01T18:23:36;10.50;99.90
48752;DHT22;34544;48.836;9.174;2023-04-01T18:26:23;10.50;99.90
48752;DHT22;34544;48.836;9.174;2023-04-01T18:31:46;10.40;99.90
48752;DHT22;34544;48.836;9.174;2023-04-01T18:37:37;10.30;99.90
48752;DHT22;34544;48.836;9.174;2023-04-01T18:40:17;10.30;99.90
48752;DHT22;34544;48.836;9.174;2023-04-01T18:48:08;10.10;99.90
48752;DHT22;34544;48.836;9.174;2023-04-01T18:50:43;10.00;99.90
48752;DHT22;34544;48.836;9.174;2023-04-01T18:53:54;9.90;99.90
48752;DHT22;34544;48.836;9.174;2023-04-01T18:56:34;9.90;99.90
48752;DHT22;34544;48.836;9.174;2023-04-01T18:59:25;9.80;99.90
48752;DHT22;34544;48.836;9.174;2023-04-01T19:02:16;9.70;99.90
48752;DHT22;34544;48.836;9.174;2023-04-01T19:07:42;9.70;99.90
48752;DHT22;34544;48.836;9.174;2023-04-01T19:10:37;9.70;99.90
48752;DHT22;34544;48.836;9.174;2023-04-01T19:13:36;9.70;99.90
48752;DHT22;34544;48.836;9.174;2023-04-01T19:21:44;9.50;99.90
48752;DHT22;34544;48.836;9.174;2023-04-01T19:24:34;9.40;99.90
48752;DHT22;34544;48.836;9.174;2023-04-01T19:27:20;9.30;99.90
48752;DHT22;34544;48.836;9.174;2023-04-01T19:33:08;9.20;99.90
48752;DHT22;34544;48.836;9.174;2023-04-01T19:35:42;9.10;99.90
48752;DHT22;34544;48.836;9.174;2023-04-01T19:43:39;9.10;99.90
48752;DHT22;34544;48.836;9.174;2023-04-01T19:51:40;9.00;99.90
48752;DHT22;34544;48.836;9.174;2023-04-01T19:57:23;9.00;99.90
48752;DHT22;34544;48.836;9.174;2023-04-01T20:05:33;8.90;99.90
48752;DHT22;34544;48.836;9.174;2023-04-01T20:08:09;9.00;99.90
48752;DHT22;34544;48.836;9.174;2023-04-01T20:11:14;9.00;99.90
48752;DHT22;34544;48.836;9.174;2023-04-01T20:13:48;9.10;99.90
48752;DHT22;34544;48.836;9.174;2023-04-01T20:16:16;9.10;99.90
48752;DHT22;34544;48.836;9.174;2023-04-01T20:18:58;9.20;99.90
48752;DHT22;34544;48.836;9.174;2023-04-01T20:21:36;9.20;99.90
48752;DHT22;34544;48.836;9.174;2023-04-01T20:37:54;9.50;99.90
48752;DHT22;34544;48.836;9.174;2023-04-01T20:43:40;9.60;99.90
48752;DHT22;34544;48.836;9.174;2023-04-01T20:46:25;9.60;99.90
48752;DHT22;34544;48.836;9.174;2023-04-01T20:51:39;9.70;99.90
48752;DHT22;34544;48.836;9.174;2023-04-01T21:03:23;9.70;99.90
48752;DHT22;34544;48.836;9.174;2023-04-01T21:06:04;9.70;99.90
48752;DHT22;34544;48.836;9.174;2023-04-01T21:08:45;9.70;99.90
48752;DHT22;34544;48.836;9.174;2023-04-01T21:14:47;9.70;99.90
48752;DHT22;34544;48.836;9.174;2023-04-01T21:23:14;9.70;99.90
48752;DHT22;34544;48.836;9.174;2023-04-01T21:26:01;9.70;99.90
48752;DHT22;34544;48.836;9.174;2023-04-01T21:28:44;9.70;99.90
48752;DHT22;34544;48.836;9.174;2023-04-01T21:31:29;9.70;99.90
48752;DHT22;34544;48.836;9.174;2023-04-01T21:37:22;9.70;99.90
48752;DHT22;34544;48.836;9.174;2023-04-01T21:54:35;9.50;99.90
48752;DHT22;34544;48.836;9.174;2023-04-01T21:57:20;9.50;99.90
48752;DHT22;34544;48.836;9.174;2023-04-01T22:05:30;9.60;99.90
48752;DHT22;34544;48.836;9.174;2023-04-01T22:11:08;9.50;99.90
48752;DHT22;34544;48.836;9.174;2023-04-01T22:13:41;9.50;99.90
48752;DHT22;34544;48.836;9.174;2023-04-01T22:19:34;9.40;99.90
48752;DHT22;34544;48.836;9.174;2023-04-01T22:22:15;9.40;99.90
48752;DHT22;34544;48.836;9.174;2023-04-01T22:29:58;9.30;99.90
48752;DHT22;34544;48.836;9.174;2023-04-01T22:32:36;9.30;99.90
48752;DHT22;34544;48.836;9.174;2023-04-01T22:38:23;9.30;99.90
48752;DHT22;34544;48.836;9.174;2023-04-01T22:41:05;9.30;99.90
48752;DHT22;34544;48.836;9.174;2023-04-01T22:43:36;9.40;99.90
48752;DHT22;34544;48.836;9.174;2023-04-01T22:51:47;9.40;99.90
48752;DHT22;34544;48.836;9.174;2023-04-01T22:54:27;9.40;99.90
48752;DHT22;34544;48.836;9.174;2023-04-01T23:00:29;9.40;99.90
48752;DHT22;34544;48.836;9.174;2023-04-01T23:03:13;9.40;99.90
48752;DHT22;34544;48.836;9.174;2023-04-01T23:05:50;9.40;99.90
48752;DHT22;34544;48.836;9.174;2023-04-01T23:11:01;9.40;99.90
48752;DHT22;34544;48.836;9.174;2023-04-01T23:13:39;9.50;99.90
48752;DHT22;34544;48.836;9.174;2023-04-01T23:16:08;9.50;99.90
48752;DHT22;34544;48.836;9.174;2023-04-01T23:19:09;9.40;99.90
48752;DHT22;34544;48.836;9.174;2023-04-01T23:21:44;9.50;99.90
48752;DHT22;34544;48.836;9.174;2023-04-01T23:24:30;9.40;99.90
48752;DHT22;34544;48.836;9.174;2023-04-01T23:27:08;9.50;99.90
48752;DHT22;34544;48.836;9.174;2023-04-01T23:29:36;9.40;99.90
48752;DHT22;34544;48.836;9.174;2023-04-01T23:32:05;9.40;99.90
48752;DHT22;34544;48.836;9.174;2023-04-01T23:34:38;9.50;99.90
48752;DHT22;34544;48.836;9.174;2023-04-01T23:37:08;9.50;99.90
48752;DHT22;34544;48.836;9.174;2023-04-01T23:39:40;9.50;99.90
48752;DHT22;34544;48.836;9.174;2023-04-01T23:42:31;9.50;99.90
48752;DHT22;34544;48.836;9.174;2023-04-01T23:45:04;9.50;99.90
48752;DHT22;34544;48.836;9.174;2023-04-01T23:47:33;9.50;99.90
48752;DHT22;34544;48.836;9.174;2023-04-01T23:50:02;9.40;99.90
48752;DHT22;34544;48.836;9.174;2023-04-01T23:52:39;9.40;99.90
48752;DHT22;34544;48.836;9.174;2023-04-01T23:55:22;9.40;99.90
